<?xml version="1.0" encoding="UTF-8"?>
<gpx xmlns="http://www.topografix.com/GPX/1/1" xmlns:xsi="http://www.w3.org/2001/XMLSchema-instance" version="1.1" xsi:schemaLocation="http://www.topografix.com/GPX/1/1 http://www.topografix.com/GPX/1/1/gpx.xsd">
  <metadata>
    <name>Wildman Triathlon</name>
  </metadata>
  <trk>
    <name>Wildman Triathlon</name>
    <trkseg>
      <trkpt lat="-1.328493" lon="36.716383">
        <ele>1846.515393</ele>
        <time>2024-03-24T07:15:00.000Z</time>
      </trkpt>
      <trkpt lat="-1.32854" lon="36.71659">
        <ele>1846.515407</ele>
        <time>2024-03-24T07:15:02.000Z</time>
      </trkpt>
      <trkpt lat="-1.32856" lon="36.716923">
        <ele>1846.515397</ele>
        <time>2024-03-24T07:15:06.000Z</time>
      </trkpt>
      <trkpt lat="-1.328728" lon="36.716906">
        <ele>1846.515395</ele>
        <time>2024-03-24T07:15:08.000Z</time>
      </trkpt>
      <trkpt lat="-1.329254" lon="36.716815">
        <ele>1846.914822</ele>
        <time>2024-03-24T07:15:14.000Z</time>
      </trkpt>
      <trkpt lat="-1.329959" lon="36.716709">
        <ele>1847.75331</ele>
        <time>2024-03-24T07:15:22.000Z</time>
      </trkpt>
      <trkpt lat="-1.331348" lon="36.716484">
        <ele>1850.916331</ele>
        <time>2024-03-24T07:15:38.000Z</time>
      </trkpt>
      <trkpt lat="-1.332765" lon="36.716311">
        <ele>1855.410846</ele>
        <time>2024-03-24T07:15:54.000Z</time>
      </trkpt>
      <trkpt lat="-1.333029" lon="36.716286">
        <ele>1855.96517</ele>
        <time>2024-03-24T07:15:57.000Z</time>
      </trkpt>
      <trkpt lat="-1.334142" lon="36.7172">
        <ele>1858.607982</ele>
        <time>2024-03-24T07:16:13.000Z</time>
      </trkpt>
      <trkpt lat="-1.335117" lon="36.71785">
        <ele>1858.487057</ele>
        <time>2024-03-24T07:16:26.000Z</time>
      </trkpt>
      <trkpt lat="-1.335729" lon="36.718392">
        <ele>1858.418198</ele>
        <time>2024-03-24T07:16:35.000Z</time>
      </trkpt>
      <trkpt lat="-1.335912" lon="36.718561">
        <ele>1858.40204</ele>
        <time>2024-03-24T07:16:38.000Z</time>
      </trkpt>
      <trkpt lat="-1.336061" lon="36.71876">
        <ele>1858.385812</ele>
        <time>2024-03-24T07:16:41.000Z</time>
      </trkpt>
      <trkpt lat="-1.336175" lon="36.719019">
        <ele>1858.367374</ele>
        <time>2024-03-24T07:16:44.000Z</time>
      </trkpt>
      <trkpt lat="-1.336193" lon="36.719064">
        <ele>1858.364352</ele>
        <time>2024-03-24T07:16:45.000Z</time>
      </trkpt>
      <trkpt lat="-1.336248" lon="36.719223">
        <ele>1858.353772</ele>
        <time>2024-03-24T07:16:47.000Z</time>
      </trkpt>
      <trkpt lat="-1.33631" lon="36.719558">
        <ele>1858.331413</ele>
        <time>2024-03-24T07:16:51.000Z</time>
      </trkpt>
      <trkpt lat="-1.336331" lon="36.719703">
        <ele>1858.28463</ele>
        <time>2024-03-24T07:16:53.000Z</time>
      </trkpt>
      <trkpt lat="-1.336331" lon="36.720005">
        <ele>1858.131546</ele>
        <time>2024-03-24T07:16:56.000Z</time>
      </trkpt>
      <trkpt lat="-1.336405" lon="36.721052">
        <ele>1857.583639</ele>
        <time>2024-03-24T07:17:08.000Z</time>
      </trkpt>
      <trkpt lat="-1.336409" lon="36.721127">
        <ele>1857.54664</ele>
        <time>2024-03-24T07:17:09.000Z</time>
      </trkpt>
      <trkpt lat="-1.336426" lon="36.721222">
        <ele>1857.491905</ele>
        <time>2024-03-24T07:17:10.000Z</time>
      </trkpt>
      <trkpt lat="-1.336505" lon="36.72249">
        <ele>1855.017885</ele>
        <time>2024-03-24T07:17:24.000Z</time>
      </trkpt>
      <trkpt lat="-1.336752" lon="36.724309">
        <ele>1849.758826</ele>
        <time>2024-03-24T07:17:44.000Z</time>
      </trkpt>
      <trkpt lat="-1.336868" lon="36.725172">
        <ele>1847.124538</ele>
        <time>2024-03-24T07:17:54.000Z</time>
      </trkpt>
      <trkpt lat="-1.336961" lon="36.725757">
        <ele>1846.186448</ele>
        <time>2024-03-24T07:18:01.000Z</time>
      </trkpt>
      <trkpt lat="-1.336981" lon="36.72585">
        <ele>1846.052187</ele>
        <time>2024-03-24T07:18:02.000Z</time>
      </trkpt>
      <trkpt lat="-1.33704" lon="36.726284">
        <ele>1845.345682</ele>
        <time>2024-03-24T07:18:07.000Z</time>
      </trkpt>
      <trkpt lat="-1.337253" lon="36.727866">
        <ele>1843.529394</ele>
        <time>2024-03-24T07:18:25.000Z</time>
      </trkpt>
      <trkpt lat="-1.337413" lon="36.728981">
        <ele>1842.613335</ele>
        <time>2024-03-24T07:18:38.000Z</time>
      </trkpt>
      <trkpt lat="-1.33787" lon="36.731969">
        <ele>1840.568088</ele>
        <time>2024-03-24T07:19:12.000Z</time>
      </trkpt>
      <trkpt lat="-1.337996" lon="36.732907">
        <ele>1838.19335</ele>
        <time>2024-03-24T07:19:23.000Z</time>
      </trkpt>
      <trkpt lat="-1.338205" lon="36.734498">
        <ele>1832.889581</ele>
        <time>2024-03-24T07:19:41.000Z</time>
      </trkpt>
      <trkpt lat="-1.338331" lon="36.735496">
        <ele>1828.777764</ele>
        <time>2024-03-24T07:19:52.000Z</time>
      </trkpt>
      <trkpt lat="-1.337351" lon="36.735708">
        <ele>1826.054601</ele>
        <time>2024-03-24T07:20:03.000Z</time>
      </trkpt>
      <trkpt lat="-1.336832" lon="36.735784">
        <ele>1824.823865</ele>
        <time>2024-03-24T07:20:09.000Z</time>
      </trkpt>
      <trkpt lat="-1.336549" lon="36.735848">
        <ele>1824.15066</ele>
        <time>2024-03-24T07:20:12.000Z</time>
      </trkpt>
      <trkpt lat="-1.334435" lon="36.73619">
        <ele>1821.331</ele>
        <time>2024-03-24T07:20:36.000Z</time>
      </trkpt>
      <trkpt lat="-1.333415" lon="36.736398">
        <ele>1820.273315</ele>
        <time>2024-03-24T07:20:48.000Z</time>
      </trkpt>
      <trkpt lat="-1.332657" lon="36.736535">
        <ele>1819.673445</ele>
        <time>2024-03-24T07:20:57.000Z</time>
      </trkpt>
      <trkpt lat="-1.332624" lon="36.736533">
        <ele>1819.668774</ele>
        <time>2024-03-24T07:20:57.000Z</time>
      </trkpt>
      <trkpt lat="-1.332216" lon="36.736596">
        <ele>1819.620542</ele>
        <time>2024-03-24T07:21:02.000Z</time>
      </trkpt>
      <trkpt lat="-1.331318" lon="36.736763">
        <ele>1819.512264</ele>
        <time>2024-03-24T07:21:12.000Z</time>
      </trkpt>
      <trkpt lat="-1.330696" lon="36.736855">
        <ele>1819.718092</ele>
        <time>2024-03-24T07:21:19.000Z</time>
      </trkpt>
      <trkpt lat="-1.329927" lon="36.736999">
        <ele>1820.182881</ele>
        <time>2024-03-24T07:21:28.000Z</time>
      </trkpt>
      <trkpt lat="-1.328218" lon="36.737288">
        <ele>1821.71091</ele>
        <time>2024-03-24T07:21:47.000Z</time>
      </trkpt>
      <trkpt lat="-1.328063" lon="36.73724">
        <ele>1821.866585</ele>
        <time>2024-03-24T07:21:49.000Z</time>
      </trkpt>
      <trkpt lat="-1.328003" lon="36.737167">
        <ele>1821.975964</ele>
        <time>2024-03-24T07:21:50.000Z</time>
      </trkpt>
      <trkpt lat="-1.327755" lon="36.735982">
        <ele>1823.402598</ele>
        <time>2024-03-24T07:22:03.000Z</time>
      </trkpt>
      <trkpt lat="-1.327575" lon="36.735053">
        <ele>1824.606276</ele>
        <time>2024-03-24T07:22:14.000Z</time>
      </trkpt>
      <trkpt lat="-1.327541" lon="36.734858">
        <ele>1824.90506</ele>
        <time>2024-03-24T07:22:16.000Z</time>
      </trkpt>
      <trkpt lat="-1.327492" lon="36.734622">
        <ele>1825.34339</ele>
        <time>2024-03-24T07:22:19.000Z</time>
      </trkpt>
      <trkpt lat="-1.32741" lon="36.734193">
        <ele>1826.115821</ele>
        <time>2024-03-24T07:22:24.000Z</time>
      </trkpt>
      <trkpt lat="-1.327227" lon="36.733252">
        <ele>1827.797934</ele>
        <time>2024-03-24T07:22:35.000Z</time>
      </trkpt>
      <trkpt lat="-1.327142" lon="36.732746">
        <ele>1828.698374</ele>
        <time>2024-03-24T07:22:41.000Z</time>
      </trkpt>
      <trkpt lat="-1.327139" lon="36.731949">
        <ele>1830.07175</ele>
        <time>2024-03-24T07:22:50.000Z</time>
      </trkpt>
      <trkpt lat="-1.327139" lon="36.7311">
        <ele>1831.463306</ele>
        <time>2024-03-24T07:22:59.000Z</time>
      </trkpt>
      <trkpt lat="-1.327143" lon="36.730374">
        <ele>1832.545991</ele>
        <time>2024-03-24T07:23:07.000Z</time>
      </trkpt>
      <trkpt lat="-1.327123" lon="36.729824">
        <ele>1833.359977</ele>
        <time>2024-03-24T07:23:13.000Z</time>
      </trkpt>
      <trkpt lat="-1.327111" lon="36.729427">
        <ele>1833.611656</ele>
        <time>2024-03-24T07:23:17.000Z</time>
      </trkpt>
      <trkpt lat="-1.3281" lon="36.729462">
        <ele>1833.321715</ele>
        <time>2024-03-24T07:23:28.000Z</time>
      </trkpt>
      <trkpt lat="-1.329143" lon="36.729518">
        <ele>1833.139647</ele>
        <time>2024-03-24T07:23:40.000Z</time>
      </trkpt>
      <trkpt lat="-1.329128" lon="36.728091">
        <ele>1833.224191</ele>
        <time>2024-03-24T07:23:56.000Z</time>
      </trkpt>
      <trkpt lat="-1.329117" lon="36.727873">
        <ele>1833.621207</ele>
        <time>2024-03-24T07:23:58.000Z</time>
      </trkpt>
      <trkpt lat="-1.32911" lon="36.727467">
        <ele>1834.339393</ele>
        <time>2024-03-24T07:24:03.000Z</time>
      </trkpt>
      <trkpt lat="-1.329094" lon="36.726758">
        <ele>1835.589147</ele>
        <time>2024-03-24T07:24:11.000Z</time>
      </trkpt>
      <trkpt lat="-1.329094" lon="36.72665">
        <ele>1835.776274</ele>
        <time>2024-03-24T07:24:12.000Z</time>
      </trkpt>
      <trkpt lat="-1.329059" lon="36.725432">
        <ele>1837.945026</ele>
        <time>2024-03-24T07:24:26.000Z</time>
      </trkpt>
      <trkpt lat="-1.329065" lon="36.725063">
        <ele>1838.633075</ele>
        <time>2024-03-24T07:24:30.000Z</time>
      </trkpt>
      <trkpt lat="-1.329067" lon="36.723959">
        <ele>1840.190776</ele>
        <time>2024-03-24T07:24:42.000Z</time>
      </trkpt>
      <trkpt lat="-1.328999" lon="36.723528">
        <ele>1840.653901</ele>
        <time>2024-03-24T07:24:47.000Z</time>
      </trkpt>
      <trkpt lat="-1.328991" lon="36.723423">
        <ele>1840.768742</ele>
        <time>2024-03-24T07:24:48.000Z</time>
      </trkpt>
      <trkpt lat="-1.328863" lon="36.722354">
        <ele>1841.554763</ele>
        <time>2024-03-24T07:25:00.000Z</time>
      </trkpt>
      <trkpt lat="-1.32873" lon="36.720656">
        <ele>1842.065012</ele>
        <time>2024-03-24T07:25:19.000Z</time>
      </trkpt>
      <trkpt lat="-1.328691" lon="36.719966">
        <ele>1842.556842</ele>
        <time>2024-03-24T07:25:27.000Z</time>
      </trkpt>
      <trkpt lat="-1.328682" lon="36.719737">
        <ele>1842.724663</ele>
        <time>2024-03-24T07:25:30.000Z</time>
      </trkpt>
      <trkpt lat="-1.328672" lon="36.719698">
        <ele>1842.762644</ele>
        <time>2024-03-24T07:25:30.000Z</time>
      </trkpt>
      <trkpt lat="-1.328631" lon="36.718899">
        <ele>1843.503689</ele>
        <time>2024-03-24T07:25:39.000Z</time>
      </trkpt>
      <trkpt lat="-1.328614" lon="36.718595">
        <ele>1843.919678</ele>
        <time>2024-03-24T07:25:42.000Z</time>
      </trkpt>
      <trkpt lat="-1.328598" lon="36.718329">
        <ele>1844.257906</ele>
        <time>2024-03-24T07:25:45.000Z</time>
      </trkpt>
      <trkpt lat="-1.328583" lon="36.718265">
        <ele>1844.353392</ele>
        <time>2024-03-24T07:25:46.000Z</time>
      </trkpt>
      <trkpt lat="-1.328583" lon="36.718174">
        <ele>1844.476789</ele>
        <time>2024-03-24T07:25:47.000Z</time>
      </trkpt>
      <trkpt lat="-1.328541" lon="36.717572">
        <ele>1845.264555</ele>
        <time>2024-03-24T07:25:54.000Z</time>
      </trkpt>
      <trkpt lat="-1.328531" lon="36.717499">
        <ele>1845.364353</ele>
        <time>2024-03-24T07:25:55.000Z</time>
      </trkpt>
      <trkpt lat="-1.328512" lon="36.716978">
        <ele>1845.846552</ele>
        <time>2024-03-24T07:26:01.000Z</time>
      </trkpt>
      <trkpt lat="-1.328457" lon="36.716939">
        <ele>1845.893985</ele>
        <time>2024-03-24T07:26:02.000Z</time>
      </trkpt>
      <trkpt lat="-1.328573" lon="36.716924">
        <ele>1845.978144</ele>
        <time>2024-03-24T07:26:03.000Z</time>
      </trkpt>
      <trkpt lat="-1.328726" lon="36.716897">
        <ele>1846.113927</ele>
        <time>2024-03-24T07:26:05.000Z</time>
      </trkpt>
      <trkpt lat="-1.32925" lon="36.716828">
        <ele>1846.538509</ele>
        <time>2024-03-24T07:26:11.000Z</time>
      </trkpt>
      <trkpt lat="-1.329967" lon="36.71671">
        <ele>1847.412569</ele>
        <time>2024-03-24T07:26:19.000Z</time>
      </trkpt>
      <trkpt lat="-1.331356" lon="36.716492">
        <ele>1850.758412</ele>
        <time>2024-03-24T07:26:35.000Z</time>
      </trkpt>
      <trkpt lat="-1.332783" lon="36.716314">
        <ele>1855.399311</ele>
        <time>2024-03-24T07:26:51.000Z</time>
      </trkpt>
      <trkpt lat="-1.333034" lon="36.716291">
        <ele>1856.270211</ele>
        <time>2024-03-24T07:26:54.000Z</time>
      </trkpt>
      <trkpt lat="-1.334145" lon="36.717185">
        <ele>1858.236627</ele>
        <time>2024-03-24T07:27:10.000Z</time>
      </trkpt>
      <trkpt lat="-1.335128" lon="36.717855">
        <ele>1858.66884</ele>
        <time>2024-03-24T07:27:23.000Z</time>
      </trkpt>
      <trkpt lat="-1.335734" lon="36.718391">
        <ele>1858.480474</ele>
        <time>2024-03-24T07:27:32.000Z</time>
      </trkpt>
      <trkpt lat="-1.335905" lon="36.718573">
        <ele>1858.423879</ele>
        <time>2024-03-24T07:27:35.000Z</time>
      </trkpt>
      <trkpt lat="-1.336062" lon="36.718773">
        <ele>1858.36726</ele>
        <time>2024-03-24T07:27:38.000Z</time>
      </trkpt>
      <trkpt lat="-1.33617" lon="36.719025">
        <ele>1858.318391</ele>
        <time>2024-03-24T07:27:41.000Z</time>
      </trkpt>
      <trkpt lat="-1.336198" lon="36.719054">
        <ele>1858.310367</ele>
        <time>2024-03-24T07:27:41.000Z</time>
      </trkpt>
      <trkpt lat="-1.336246" lon="36.719223">
        <ele>1858.282333</ele>
        <time>2024-03-24T07:27:43.000Z</time>
      </trkpt>
      <trkpt lat="-1.336303" lon="36.719545">
        <ele>1858.223048</ele>
        <time>2024-03-24T07:27:47.000Z</time>
      </trkpt>
      <trkpt lat="-1.336334" lon="36.719713">
        <ele>1858.195228</ele>
        <time>2024-03-24T07:27:49.000Z</time>
      </trkpt>
      <trkpt lat="-1.336339" lon="36.719992">
        <ele>1858.143886</ele>
        <time>2024-03-24T07:27:52.000Z</time>
      </trkpt>
      <trkpt lat="-1.336403" lon="36.721046">
        <ele>1857.443467</ele>
        <time>2024-03-24T07:28:04.000Z</time>
      </trkpt>
      <trkpt lat="-1.336415" lon="36.721132">
        <ele>1857.362973</ele>
        <time>2024-03-24T07:28:05.000Z</time>
      </trkpt>
      <trkpt lat="-1.336416" lon="36.721234">
        <ele>1857.243846</ele>
        <time>2024-03-24T07:28:06.000Z</time>
      </trkpt>
      <trkpt lat="-1.336501" lon="36.722499">
        <ele>1855.422148</ele>
        <time>2024-03-24T07:28:20.000Z</time>
      </trkpt>
      <trkpt lat="-1.336757" lon="36.724298">
        <ele>1849.705251</ele>
        <time>2024-03-24T07:28:40.000Z</time>
      </trkpt>
      <trkpt lat="-1.336877" lon="36.725181">
        <ele>1847.435842</ele>
        <time>2024-03-24T07:28:50.000Z</time>
      </trkpt>
      <trkpt lat="-1.336958" lon="36.725772">
        <ele>1845.929136</ele>
        <time>2024-03-24T07:28:57.000Z</time>
      </trkpt>
      <trkpt lat="-1.336978" lon="36.72584">
        <ele>1845.713475</ele>
        <time>2024-03-24T07:28:58.000Z</time>
      </trkpt>
      <trkpt lat="-1.337039" lon="36.726282">
        <ele>1845.185568</ele>
        <time>2024-03-24T07:29:03.000Z</time>
      </trkpt>
      <trkpt lat="-1.337249" lon="36.72786">
        <ele>1843.50159</ele>
        <time>2024-03-24T07:29:21.000Z</time>
      </trkpt>
      <trkpt lat="-1.337406" lon="36.728991">
        <ele>1842.637292</ele>
        <time>2024-03-24T07:29:34.000Z</time>
      </trkpt>
      <trkpt lat="-1.337856" lon="36.731987">
        <ele>1840.115878</ele>
        <time>2024-03-24T07:30:08.000Z</time>
      </trkpt>
      <trkpt lat="-1.338003" lon="36.732897">
        <ele>1838.59323</ele>
        <time>2024-03-24T07:30:18.000Z</time>
      </trkpt>
      <trkpt lat="-1.338213" lon="36.73449">
        <ele>1832.76619</ele>
        <time>2024-03-24T07:30:36.000Z</time>
      </trkpt>
      <trkpt lat="-1.338336" lon="36.735491">
        <ele>1829.145309</ele>
        <time>2024-03-24T07:30:47.000Z</time>
      </trkpt>
      <trkpt lat="-1.337354" lon="36.735692">
        <ele>1825.605371</ele>
        <time>2024-03-24T07:30:58.000Z</time>
      </trkpt>
      <trkpt lat="-1.336842" lon="36.735793">
        <ele>1824.687098</ele>
        <time>2024-03-24T07:31:04.000Z</time>
      </trkpt>
      <trkpt lat="-1.336563" lon="36.73584">
        <ele>1824.251437</ele>
        <time>2024-03-24T07:31:07.000Z</time>
      </trkpt>
      <trkpt lat="-1.334431" lon="36.73619">
        <ele>1821.316781</ele>
        <time>2024-03-24T07:31:31.000Z</time>
      </trkpt>
      <trkpt lat="-1.333414" lon="36.736409">
        <ele>1820.27402</ele>
        <time>2024-03-24T07:31:43.000Z</time>
      </trkpt>
      <trkpt lat="-1.332662" lon="36.736531">
        <ele>1819.827832</ele>
        <time>2024-03-24T07:31:51.000Z</time>
      </trkpt>
      <trkpt lat="-1.332625" lon="36.736537">
        <ele>1819.804804</ele>
        <time>2024-03-24T07:31:51.000Z</time>
      </trkpt>
      <trkpt lat="-1.332209" lon="36.736598">
        <ele>1819.566846</ele>
        <time>2024-03-24T07:31:56.000Z</time>
      </trkpt>
      <trkpt lat="-1.331317" lon="36.73676">
        <ele>1819.574112</ele>
        <time>2024-03-24T07:32:06.000Z</time>
      </trkpt>
      <trkpt lat="-1.330695" lon="36.736861">
        <ele>1819.717636</ele>
        <time>2024-03-24T07:32:13.000Z</time>
      </trkpt>
      <trkpt lat="-1.32993" lon="36.736998">
        <ele>1820.077092</ele>
        <time>2024-03-24T07:32:22.000Z</time>
      </trkpt>
      <trkpt lat="-1.328214" lon="36.737296">
        <ele>1821.704284</ele>
        <time>2024-03-24T07:32:41.000Z</time>
      </trkpt>
      <trkpt lat="-1.32807" lon="36.737257">
        <ele>1821.87273</ele>
        <time>2024-03-24T07:32:43.000Z</time>
      </trkpt>
      <trkpt lat="-1.328009" lon="36.737154">
        <ele>1821.991064</ele>
        <time>2024-03-24T07:32:44.000Z</time>
      </trkpt>
      <trkpt lat="-1.327753" lon="36.735979">
        <ele>1823.335823</ele>
        <time>2024-03-24T07:32:57.000Z</time>
      </trkpt>
      <trkpt lat="-1.327573" lon="36.735043">
        <ele>1824.726359</ele>
        <time>2024-03-24T07:33:08.000Z</time>
      </trkpt>
      <trkpt lat="-1.327531" lon="36.734859">
        <ele>1825.017426</ele>
        <time>2024-03-24T07:33:10.000Z</time>
      </trkpt>
      <trkpt lat="-1.327499" lon="36.734628">
        <ele>1825.393026</ele>
        <time>2024-03-24T07:33:13.000Z</time>
      </trkpt>
      <trkpt lat="-1.327399" lon="36.734199">
        <ele>1826.05495</ele>
        <time>2024-03-24T07:33:18.000Z</time>
      </trkpt>
      <trkpt lat="-1.327234" lon="36.733255">
        <ele>1827.755012</ele>
        <time>2024-03-24T07:33:29.000Z</time>
      </trkpt>
      <trkpt lat="-1.327136" lon="36.732737">
        <ele>1828.703129</ele>
        <time>2024-03-24T07:33:35.000Z</time>
      </trkpt>
      <trkpt lat="-1.327142" lon="36.731945">
        <ele>1830.101912</ele>
        <time>2024-03-24T07:33:44.000Z</time>
      </trkpt>
      <trkpt lat="-1.327134" lon="36.731095">
        <ele>1831.533387</ele>
        <time>2024-03-24T07:33:53.000Z</time>
      </trkpt>
      <trkpt lat="-1.327131" lon="36.730364">
        <ele>1832.617075</ele>
        <time>2024-03-24T07:34:01.000Z</time>
      </trkpt>
      <trkpt lat="-1.327115" lon="36.729817">
        <ele>1833.036695</ele>
        <time>2024-03-24T07:34:07.000Z</time>
      </trkpt>
      <trkpt lat="-1.327108" lon="36.729411">
        <ele>1833.344548</ele>
        <time>2024-03-24T07:34:12.000Z</time>
      </trkpt>
      <trkpt lat="-1.328113" lon="36.729446">
        <ele>1833.670688</ele>
        <time>2024-03-24T07:34:23.000Z</time>
      </trkpt>
      <trkpt lat="-1.329136" lon="36.729513">
        <ele>1832.971294</ele>
        <time>2024-03-24T07:34:34.000Z</time>
      </trkpt>
      <trkpt lat="-1.329124" lon="36.728096">
        <ele>1833.628823</ele>
        <time>2024-03-24T07:34:50.000Z</time>
      </trkpt>
      <trkpt lat="-1.329114" lon="36.727863">
        <ele>1833.853097</ele>
        <time>2024-03-24T07:34:53.000Z</time>
      </trkpt>
      <trkpt lat="-1.329121" lon="36.727466">
        <ele>1834.258783</ele>
        <time>2024-03-24T07:34:57.000Z</time>
      </trkpt>
      <trkpt lat="-1.329103" lon="36.726754">
        <ele>1835.448017</ele>
        <time>2024-03-24T07:35:05.000Z</time>
      </trkpt>
      <trkpt lat="-1.329098" lon="36.72664">
        <ele>1835.654196</ele>
        <time>2024-03-24T07:35:06.000Z</time>
      </trkpt>
      <trkpt lat="-1.329064" lon="36.725448">
        <ele>1837.989449</ele>
        <time>2024-03-24T07:35:19.000Z</time>
      </trkpt>
      <trkpt lat="-1.329073" lon="36.725058">
        <ele>1838.587692</ele>
        <time>2024-03-24T07:35:23.000Z</time>
      </trkpt>
      <trkpt lat="-1.329067" lon="36.723953">
        <ele>1840.328832</ele>
        <time>2024-03-24T07:35:35.000Z</time>
      </trkpt>
      <trkpt lat="-1.328996" lon="36.723525">
        <ele>1840.860279</ele>
        <time>2024-03-24T07:35:40.000Z</time>
      </trkpt>
      <trkpt lat="-1.328979" lon="36.723412">
        <ele>1840.915401</ele>
        <time>2024-03-24T07:35:41.000Z</time>
      </trkpt>
      <trkpt lat="-1.328858" lon="36.722353">
        <ele>1841.465957</ele>
        <time>2024-03-24T07:35:53.000Z</time>
      </trkpt>
      <trkpt lat="-1.328743" lon="36.720648">
        <ele>1842.054615</ele>
        <time>2024-03-24T07:36:12.000Z</time>
      </trkpt>
      <trkpt lat="-1.328692" lon="36.719975">
        <ele>1842.346</ele>
        <time>2024-03-24T07:36:20.000Z</time>
      </trkpt>
      <trkpt lat="-1.328676" lon="36.719735">
        <ele>1842.623687</ele>
        <time>2024-03-24T07:36:23.000Z</time>
      </trkpt>
      <trkpt lat="-1.328675" lon="36.719689">
        <ele>1842.686543</ele>
        <time>2024-03-24T07:36:24.000Z</time>
      </trkpt>
      <trkpt lat="-1.328625" lon="36.718903">
        <ele>1843.642917</ele>
        <time>2024-03-24T07:36:33.000Z</time>
      </trkpt>
      <trkpt lat="-1.328612" lon="36.718586">
        <ele>1844.021822</ele>
        <time>2024-03-24T07:36:37.000Z</time>
      </trkpt>
      <trkpt lat="-1.328594" lon="36.718331">
        <ele>1844.329894</ele>
        <time>2024-03-24T07:36:40.000Z</time>
      </trkpt>
      <trkpt lat="-1.328598" lon="36.718259">
        <ele>1844.411254</ele>
        <time>2024-03-24T07:36:41.000Z</time>
      </trkpt>
      <trkpt lat="-1.328574" lon="36.718174">
        <ele>1844.505333</ele>
        <time>2024-03-24T07:36:42.000Z</time>
      </trkpt>
      <trkpt lat="-1.328537" lon="36.717572">
        <ele>1845.105939</ele>
        <time>2024-03-24T07:36:49.000Z</time>
      </trkpt>
      <trkpt lat="-1.32854" lon="36.717494">
        <ele>1845.182026</ele>
        <time>2024-03-24T07:36:50.000Z</time>
      </trkpt>
      <trkpt lat="-1.328506" lon="36.716982">
        <ele>1845.707094</ele>
        <time>2024-03-24T07:36:56.000Z</time>
      </trkpt>
      <trkpt lat="-1.328466" lon="36.716934">
        <ele>1845.766204</ele>
        <time>2024-03-24T07:36:57.000Z</time>
      </trkpt>
      <trkpt lat="-1.328557" lon="36.716933">
        <ele>1845.871087</ele>
        <time>2024-03-24T07:36:58.000Z</time>
      </trkpt>
      <trkpt lat="-1.328737" lon="36.716911">
        <ele>1846.040322</ele>
        <time>2024-03-24T07:37:00.000Z</time>
      </trkpt>
      <trkpt lat="-1.329241" lon="36.716827">
        <ele>1846.677496</ele>
        <time>2024-03-24T07:37:06.000Z</time>
      </trkpt>
      <trkpt lat="-1.329973" lon="36.716708">
        <ele>1847.621456</ele>
        <time>2024-03-24T07:37:14.000Z</time>
      </trkpt>
      <trkpt lat="-1.331362" lon="36.716487">
        <ele>1850.928573</ele>
        <time>2024-03-24T07:37:30.000Z</time>
      </trkpt>
      <trkpt lat="-1.332767" lon="36.716306">
        <ele>1855.388613</ele>
        <time>2024-03-24T07:37:46.000Z</time>
      </trkpt>
      <trkpt lat="-1.333021" lon="36.716289">
        <ele>1855.952934</ele>
        <time>2024-03-24T07:37:49.000Z</time>
      </trkpt>
      <trkpt lat="-1.334139" lon="36.717197">
        <ele>1858.592224</ele>
        <time>2024-03-24T07:38:05.000Z</time>
      </trkpt>
      <trkpt lat="-1.335128" lon="36.717849">
        <ele>1858.485216</ele>
        <time>2024-03-24T07:38:18.000Z</time>
      </trkpt>
      <trkpt lat="-1.335745" lon="36.718384">
        <ele>1858.421643</ele>
        <time>2024-03-24T07:38:27.000Z</time>
      </trkpt>
      <trkpt lat="-1.335913" lon="36.718568">
        <ele>1858.405389</ele>
        <time>2024-03-24T07:38:30.000Z</time>
      </trkpt>
      <trkpt lat="-1.336057" lon="36.718761">
        <ele>1858.389059</ele>
        <time>2024-03-24T07:38:33.000Z</time>
      </trkpt>
      <trkpt lat="-1.336173" lon="36.719028">
        <ele>1858.370518</ele>
        <time>2024-03-24T07:38:36.000Z</time>
      </trkpt>
      <trkpt lat="-1.336195" lon="36.719071">
        <ele>1858.367473</ele>
        <time>2024-03-24T07:38:37.000Z</time>
      </trkpt>
      <trkpt lat="-1.336247" lon="36.719209">
        <ele>1858.356841</ele>
        <time>2024-03-24T07:38:39.000Z</time>
      </trkpt>
      <trkpt lat="-1.336306" lon="36.719552">
        <ele>1858.334342</ele>
        <time>2024-03-24T07:38:43.000Z</time>
      </trkpt>
      <trkpt lat="-1.336325" lon="36.719713">
        <ele>1858.277884</ele>
        <time>2024-03-24T07:38:45.000Z</time>
      </trkpt>
      <trkpt lat="-1.336346" lon="36.72">
        <ele>1858.127719</ele>
        <time>2024-03-24T07:38:48.000Z</time>
      </trkpt>
      <trkpt lat="-1.336414" lon="36.721048">
        <ele>1857.590261</ele>
        <time>2024-03-24T07:39:00.000Z</time>
      </trkpt>
      <trkpt lat="-1.336412" lon="36.721118">
        <ele>1857.553972</ele>
        <time>2024-03-24T07:39:01.000Z</time>
      </trkpt>
      <trkpt lat="-1.336416" lon="36.721228">
        <ele>1857.500273</ele>
        <time>2024-03-24T07:39:02.000Z</time>
      </trkpt>
      <trkpt lat="-1.336507" lon="36.722497">
        <ele>1855.023834</ele>
        <time>2024-03-24T07:39:16.000Z</time>
      </trkpt>
      <trkpt lat="-1.33676" lon="36.724293">
        <ele>1849.749184</ele>
        <time>2024-03-24T07:39:36.000Z</time>
      </trkpt>
      <trkpt lat="-1.336881" lon="36.725181">
        <ele>1847.144151</ele>
        <time>2024-03-24T07:39:46.000Z</time>
      </trkpt>
      <trkpt lat="-1.336957" lon="36.725773">
        <ele>1846.193903</ele>
        <time>2024-03-24T07:39:53.000Z</time>
      </trkpt>
      <trkpt lat="-1.336967" lon="36.72584">
        <ele>1846.057908</ele>
        <time>2024-03-24T07:39:54.000Z</time>
      </trkpt>
      <trkpt lat="-1.337036" lon="36.726286">
        <ele>1845.342221</ele>
        <time>2024-03-24T07:39:59.000Z</time>
      </trkpt>
      <trkpt lat="-1.337254" lon="36.727863">
        <ele>1843.527276</ele>
        <time>2024-03-24T07:40:17.000Z</time>
      </trkpt>
      <trkpt lat="-1.337417" lon="36.728982">
        <ele>1842.615844</ele>
        <time>2024-03-24T07:40:30.000Z</time>
      </trkpt>
      <trkpt lat="-1.337861" lon="36.731985">
        <ele>1840.583298</ele>
        <time>2024-03-24T07:41:04.000Z</time>
      </trkpt>
      <trkpt lat="-1.338" lon="36.732892">
        <ele>1838.186344</ele>
        <time>2024-03-24T07:41:14.000Z</time>
      </trkpt>
      <trkpt lat="-1.338208" lon="36.734492">
        <ele>1832.884112</ele>
        <time>2024-03-24T07:41:32.000Z</time>
      </trkpt>
      <trkpt lat="-1.338342" lon="36.735493">
        <ele>1828.769903</ele>
        <time>2024-03-24T07:41:43.000Z</time>
      </trkpt>
      <trkpt lat="-1.337352" lon="36.735698">
        <ele>1826.059921</ele>
        <time>2024-03-24T07:41:54.000Z</time>
      </trkpt>
      <trkpt lat="-1.33683" lon="36.735787">
        <ele>1824.813443</ele>
        <time>2024-03-24T07:42:00.000Z</time>
      </trkpt>
      <trkpt lat="-1.336558" lon="36.735843">
        <ele>1824.131622</ele>
        <time>2024-03-24T07:42:03.000Z</time>
      </trkpt>
      <trkpt lat="-1.33444" lon="36.736185">
        <ele>1821.334229</ele>
        <time>2024-03-24T07:42:27.000Z</time>
      </trkpt>
      <trkpt lat="-1.333405" lon="36.736406">
        <ele>1820.267602</ele>
        <time>2024-03-24T07:42:39.000Z</time>
      </trkpt>
      <trkpt lat="-1.332648" lon="36.736528">
        <ele>1819.68184</ele>
        <time>2024-03-24T07:42:48.000Z</time>
      </trkpt>
      <trkpt lat="-1.332609" lon="36.736532">
        <ele>1819.676773</ele>
        <time>2024-03-24T07:42:48.000Z</time>
      </trkpt>
      <trkpt lat="-1.33222" lon="36.736608">
        <ele>1819.624458</ele>
        <time>2024-03-24T07:42:52.000Z</time>
      </trkpt>
      <trkpt lat="-1.33131" lon="36.736769">
        <ele>1819.506996</ele>
        <time>2024-03-24T07:43:02.000Z</time>
      </trkpt>
      <trkpt lat="-1.330682" lon="36.736852">
        <ele>1819.72352</ele>
        <time>2024-03-24T07:43:09.000Z</time>
      </trkpt>
      <trkpt lat="-1.329927" lon="36.736988">
        <ele>1820.180712</ele>
        <time>2024-03-24T07:43:18.000Z</time>
      </trkpt>
      <trkpt lat="-1.328209" lon="36.737285">
        <ele>1821.710612</ele>
        <time>2024-03-24T07:43:37.000Z</time>
      </trkpt>
      <trkpt lat="-1.328066" lon="36.737253">
        <ele>1821.866016</ele>
        <time>2024-03-24T07:43:39.000Z</time>
      </trkpt>
      <trkpt lat="-1.32801" lon="36.737157">
        <ele>1821.975164</ele>
        <time>2024-03-24T07:43:40.000Z</time>
      </trkpt>
      <trkpt lat="-1.327752" lon="36.73599">
        <ele>1823.402315</ele>
        <time>2024-03-24T07:43:53.000Z</time>
      </trkpt>
      <trkpt lat="-1.327572" lon="36.735059">
        <ele>1824.600796</ele>
        <time>2024-03-24T07:44:04.000Z</time>
      </trkpt>
      <trkpt lat="-1.327536" lon="36.734864">
        <ele>1824.910482</ele>
        <time>2024-03-24T07:44:06.000Z</time>
      </trkpt>
      <trkpt lat="-1.327483" lon="36.734611">
        <ele>1825.34775</ele>
        <time>2024-03-24T07:44:09.000Z</time>
      </trkpt>
      <trkpt lat="-1.327398" lon="36.734196">
        <ele>1826.118346</ele>
        <time>2024-03-24T07:44:14.000Z</time>
      </trkpt>
      <trkpt lat="-1.327224" lon="36.733252">
        <ele>1827.796433</ele>
        <time>2024-03-24T07:44:25.000Z</time>
      </trkpt>
      <trkpt lat="-1.327144" lon="36.73275">
        <ele>1828.696598</ele>
        <time>2024-03-24T07:44:31.000Z</time>
      </trkpt>
      <trkpt lat="-1.327148" lon="36.731949">
        <ele>1830.071577</ele>
        <time>2024-03-24T07:44:40.000Z</time>
      </trkpt>
      <trkpt lat="-1.327135" lon="36.73109">
        <ele>1831.462319</ele>
        <time>2024-03-24T07:44:50.000Z</time>
      </trkpt>
      <trkpt lat="-1.32714" lon="36.730363">
        <ele>1832.553091</ele>
        <time>2024-03-24T07:44:58.000Z</time>
      </trkpt>
      <trkpt lat="-1.327114" lon="36.729818">
        <ele>1833.37315</ele>
        <time>2024-03-24T07:45:04.000Z</time>
      </trkpt>
      <trkpt lat="-1.327121" lon="36.729423">
        <ele>1833.58983</ele>
        <time>2024-03-24T07:45:08.000Z</time>
      </trkpt>
      <trkpt lat="-1.328113" lon="36.729446">
        <ele>1833.321459</ele>
        <time>2024-03-24T07:45:19.000Z</time>
      </trkpt>
      <trkpt lat="-1.329149" lon="36.729508">
        <ele>1833.147728</ele>
        <time>2024-03-24T07:45:31.000Z</time>
      </trkpt>
      <trkpt lat="-1.329115" lon="36.728089">
        <ele>1833.24091</ele>
        <time>2024-03-24T07:45:47.000Z</time>
      </trkpt>
      <trkpt lat="-1.329112" lon="36.727872">
        <ele>1833.635037</ele>
        <time>2024-03-24T07:45:49.000Z</time>
      </trkpt>
      <trkpt lat="-1.32911" lon="36.727453">
        <ele>1834.347986</ele>
        <time>2024-03-24T07:45:54.000Z</time>
      </trkpt>
      <trkpt lat="-1.329086" lon="36.726749">
        <ele>1835.588667</ele>
        <time>2024-03-24T07:46:02.000Z</time>
      </trkpt>
      <trkpt lat="-1.329088" lon="36.726642">
        <ele>1835.774419</ele>
        <time>2024-03-24T07:46:03.000Z</time>
      </trkpt>
      <trkpt lat="-1.329058" lon="36.725431">
        <ele>1837.944879</ele>
        <time>2024-03-24T07:46:16.000Z</time>
      </trkpt>
      <trkpt lat="-1.329057" lon="36.725058">
        <ele>1838.634625</ele>
        <time>2024-03-24T07:46:20.000Z</time>
      </trkpt>
      <trkpt lat="-1.329067" lon="36.723947">
        <ele>1840.186793</ele>
        <time>2024-03-24T07:46:32.000Z</time>
      </trkpt>
      <trkpt lat="-1.328994" lon="36.723532">
        <ele>1840.656801</ele>
        <time>2024-03-24T07:46:37.000Z</time>
      </trkpt>
      <trkpt lat="-1.32898" lon="36.723415">
        <ele>1840.773356</ele>
        <time>2024-03-24T07:46:38.000Z</time>
      </trkpt>
      <trkpt lat="-1.328855" lon="36.722348">
        <ele>1841.550322</ele>
        <time>2024-03-24T07:46:50.000Z</time>
      </trkpt>
      <trkpt lat="-1.328744" lon="36.720642">
        <ele>1842.071999</ele>
        <time>2024-03-24T07:47:09.000Z</time>
      </trkpt>
      <trkpt lat="-1.328698" lon="36.719965">
        <ele>1842.554413</ele>
        <time>2024-03-24T07:47:17.000Z</time>
      </trkpt>
      <trkpt lat="-1.328677" lon="36.719742">
        <ele>1842.719023</ele>
        <time>2024-03-24T07:47:19.000Z</time>
      </trkpt>
      <trkpt lat="-1.328686" lon="36.71969">
        <ele>1842.756293</ele>
        <time>2024-03-24T07:47:20.000Z</time>
      </trkpt>
      <trkpt lat="-1.328619" lon="36.718893">
        <ele>1843.519477</ele>
        <time>2024-03-24T07:47:29.000Z</time>
      </trkpt>
      <trkpt lat="-1.328608" lon="36.718591">
        <ele>1843.951356</ele>
        <time>2024-03-24T07:47:32.000Z</time>
      </trkpt>
      <trkpt lat="-1.328596" lon="36.718322">
        <ele>1844.302487</ele>
        <time>2024-03-24T07:47:35.000Z</time>
      </trkpt>
      <trkpt lat="-1.328584" lon="36.718263">
        <ele>1844.401635</ele>
        <time>2024-03-24T07:47:36.000Z</time>
      </trkpt>
      <trkpt lat="-1.328581" lon="36.718164">
        <ele>1844.52974</ele>
        <time>2024-03-24T07:47:37.000Z</time>
      </trkpt>
      <trkpt lat="-1.328543" lon="36.717578">
        <ele>1845.347624</ele>
        <time>2024-03-24T07:47:44.000Z</time>
      </trkpt>
      <trkpt lat="-1.328526" lon="36.717499">
        <ele>1845.451226</ele>
        <time>2024-03-24T07:47:45.000Z</time>
      </trkpt>
      <trkpt lat="-1.328506" lon="36.716971">
        <ele>1845.65894511</ele>
        <time>2024-03-24T07:47:51.000Z</time>
      </trkpt>
      <trkpt lat="-1.328468" lon="36.716933">
        <ele>1845.68007455</ele>
        <time>2024-03-24T07:47:52.000Z</time>
      </trkpt>
      <trkpt lat="-1.328568" lon="36.716926">
        <ele>1845.71949383</ele>
        <time>2024-03-24T07:47:53.000Z</time>
      </trkpt>
      <trkpt lat="-1.328527" lon="36.716586">
        <ele>1845.85412528</ele>
        <time>2024-03-24T07:47:57.000Z</time>
      </trkpt>
      <trkpt lat="-1.328497" lon="36.716385">
        <ele>1845.93401922</ele>
        <time>2024-03-24T07:47:59.000Z</time>
      </trkpt>
    </trkseg>
  </trk>
</gpx>

<!--
Performance optimized by W3 Total Cache. Learn more: https://www.boldgrid.com/w3-total-cache/?utm_source=w3tc&utm_medium=footer_comment&utm_campaign=free_plugin

Page Caching using Disk: Enhanced{w3tc_pagecache_reject_reason} 

Served from: www.aquabike.world @ 2026-05-10 21:35:00 by W3 Total Cache
-->